Men’s Results 2011-

Men’s IHLC Title Game Results, 2011-present
Results listed as follows – game number, winner, score, loser, date, event, location.

sweden-11 SWEDEN – 75th reign, 1 win, current champions
1659. sweden-11 SWE 2-1 CAN canada1965-11 (SO) – 05/21/2017 – WC – Cologne germany1920to33and49-11 goldmedal
upcoming games:
1660. sweden-11 SWE vs. CZE czech-11 – 11/08/2017 – KT – TBC sweden-11
1661. sweden-11 SWE vs. CAN canada1965-11 – 11/10/2017 – KT – Helsinki finland-11
1662. sweden-11 SWE vs. FIN finland-11 – 11/12/2017 – KT – Helsinki finland-11

canada1965-11 CANADA – 64th reign, 3 wins
1658. canada1965-11 CAN 4-2 RUS russia-11 – 05/20/2017 – WC – Cologne germany1920to33and49-11
1657. canada1965-11 CAN 2-1 GER germany1920to33and49-11 – 05/18/2017 – WC – Cologne germany1920to33and49-11
1656. canada1965-11 CAN 5-2 FIN finland-11 – 05/16/2017 – WC – Paris france-11

finland-11 FINLAND – 50th reign, 1 win
1655. finland-11 FIN 3-2 SUI switzerland-11 (OT) – 05/14/2017 – WC – Paris france-11

switzerland-11 SWITZERLAND – 19th reign, 1 win
1654. switzerland-11 SUI 3-2 CAN canada1965-11 (OT) – 05/13/2017 – WC – Paris france-11

canada1965-11 CANADA – 63rd reign, 5 wins
1653. canada1965-11 CAN 3-2 FRA france-11 – 05/11/2017 – WC – Paris france-11
1652. canada1965-11 CAN 6-0 BLR belarus-11 – 05/08/2017 – WC – Paris france-11
1651. canada1965-11 CAN 7-2 SLO slovenia-11 – 05/07/2017 – WC – Paris france-11
1650. 
canada1965-11 CAN 4-1 CZE czech-11 – 05/05/2017 – WC – Paris france-11
1649. canada1965-11 CAN 4-1 SUI switzerland-11 – 05/02/2017 – EX – Geneva switzerland-11

switzerland-11 SWITZERLAND – 18th reign, 1 win
1648. switzerland-11 SUI 2-0 DEN denmark-11 – 04/28/2017 – EHC – Basel switzerland-11

denmark-11 DENMARK – 3nd reign, 1 win
1647. denmark-11 DEN 5-4 SUI switzerland-11 – 04/26/2017 – EHC – La Chaux-de-Fonds switzerland-11

switzerland-11 SWITZERLAND – 17th reign, 2 wins
1646. switzerland-11 SUI 2-0 RUS russia-11 – 04/22/2017 – EHC – Biel switzerland-11
1645. switzerland-11 SUI 2-1 RUS russia-11 – 04/21/2017 – EHC – Fribourg switzerland-11

russia-11 RUSSIA 67th reign, 1 win
1644. russia-11 RUS 6-0 FRA france-11 – 04/15/2017 – EHC – Chelyabinsk russia-11

france-11 FRANCE – 9th reign, 2 wins
1643. france-11 FRA 1-0 RUS russia-11 (OT) – 04/13/2017 – EHC – Chelyabinsk russia-11
1642. france-11 FRA 3-2 SUI switzerland-11 (OT) – 04/09/2017 – EHC – Cergy-Pontoise france-11

switzerland-11 SWITZERLAND – 16th reign, 4 wins
1641. switzerland-11 SUI 4-3 FRA france-11 – 04/08/2017 – EHC – Amiens france-11
1640. switzerland-11 SUI 4-3 SVK slovakia-11 – 02/11/2017 – SC – Nitra slovakia-11
1639. switzerland-11 SUI 4-2 BLR belarus-11 – 02/10/2017 – SC – Nitra slovakia-11
1638. switzerland-11 SUI 6-1 BLR belarus-11 – 12/17/2016 – SWC – Biel switzerland-11

belarus-11 BELARUS – 5th reign, 1 win
1637. belarus-11 BLR 7-1 SVK slovakia-11 – 12/16/2016 – SWC – Biel switzerland-11

slovakia-11 SLOVAKIA11th reign, 2 wins
1636. slovakia-11 SVK 4-1 SUI switzerland-11 – 11/06/2016 – DC – Augsburg germany1920to33and49-11
1635. slovakia-11 SVK 4-3 CAN canada1965-11 (SO) – 11/05/2016 – DC – Augsburg germany1920to33and49-11

canada1965-11 CANADA – 62nd reign, 7 wins
1634. canada1965-11 CAN 3-0 SUI switzerland-11 – 11/04/2016 – DC – Augsburg germany1920to33and49-11
1633. canada1965-11 CAN 5-1 HUN hungary-11 – 11/01/2016 – EX – Budapest hungary-11
Canada wins the World Cup finals over Team Europe, a non-national team made up of European players not from Russia, Czechia, Sweden or Finland, and thus the games do not count as IHLC matchups.
1632. canada1965-11 CAN 5-3 RUS russia-11 – 09/24/2016 – WCH – Toronto canada1965-11
1631. canada1965-11 CAN 4-2 USA usa-11 – 09/20/2016 – WCH – Toronto canada1965-11
1630. canada1965-11 CAN 6-0 CZE czech-11 – 09/17/2016 – WCH – Toronto canada1965-11
1629. canada1965-11 CAN 3-2 RUS russia-11 (OT) – 09/14/2016 – EX – Pittsburgh usa-11
1628. canada1965-11 CAN 5-2 USA usa-11 – 09/10/2016 – EX – Ottawa canada1965-11

usa-11 UNITED STATES29th reign, 1 win
1627. usa-11 USA 4-2 CAN canada1965-11 – 09/09/2016 – EX – Columbus usa-11

canada1965-11 CANADA – 61st reign, 1 win
1626. canada1965-11 CAN 2-0 FIN finland-11 – 05/22/2016 – WC – Moscow russia-11 goldmedal

finland-11 FINLAND – 49th reign, 3 wins
1625. finland-11 FIN 3-1 RUS russia-11 – 05/21/2016 – WC – Moscow russia-11
1624. finland-11 FIN 5-1 DEN denmark-11 – 05/19/2016 – WC – Saint Petersburg russia-11
1623. finland-11 FIN 4-0 CAN canada1965-11 – 05/17/2016 – WC – Saint Petersburg russia-11

canada1965-11 CANADA – 60th reign, 14 wins
1622. canada1965-11 CAN 4-0 FRA france-11 – 05/16/2016 – WC – Saint Petersburg russia-11
1621. canada1965-11 CAN 5-0 SVK slovakia-11 – 05/14/2016 – WC – Saint Petersburg russia-11
1620. canada1965-11 CAN 5-2 GER germany1920to33and49-11 – 05/12/2016 – WC – Saint Petersburg russia-11
1619. canada1965-11 CAN 8-0 BLR belarus-11 – 05/09/2016 – WC – Saint Petersburg russia-11
1618. canada1965-11 CAN 7-1 HUN hungary-11 – 05/08/2016 – WC – Saint Petersburg russia-11
1617. canada1965-11 CAN 5-1 USA usa-11 – 05/06/2016 – WC – Saint Petersburg russia-11
1616. canada1965-11 CAN 3-0 CZE czech-11 – 05/03/2016 – EX – Prague czech-11
1615. canada1965-11 CAN 6-1 RUS russia-11 – 05/17/2015 – WC – Prague czech-11 goldmedal
1614. canada1965-11 CAN 2-0 CZE czech-11 – 05/16/2015 – WC – Prague czech-11
1613. canada1965-11 CAN 9-0 BLR belarus-11 – 05/14/2015 – WC – Prague czech-11
1612. canada1965-11 CAN 10-1 AUT austria-11 – 05/12/2015 – WC – Prague czech-11
1611. canada1965-11 CAN 7-2 SUI switzerland-11 – 05/10/2015 – WC – Prague czech-11
1610. canada1965-11 CAN 4-3 FRA france-11 – 05/09/2015 – WC – Prague czech-11
1609. canada1965-11 CAN 6-4 SWE sweden-11 – 05/06/2015 – WC – Prague czech-11

sweden-11 SWEDEN – 74th reign, 6 wins
1608. sweden-11 SWE 8-1 LAT latvia-11 – 05/04/2015 – WC – Prague czech-11
1607. sweden-11 SWE 6-1 AUT austria-11 – 05/03/2015 – WC – Prague czech-11
1606. sweden-11 SWE 6-5 CZE czech-11 (SO) – 05/01/2015 – WC – Prague czech-11
1605. sweden-11 SWE 3-2 RUS russia-11 (OT) – 04/25/2015 – EHT – Mytischi russia-11
1604. sweden-11 SWE 5-4 RUS russia-11 – 04/24/2015 – EHT – Mytischi russia-11
1603. sweden-11 SWE 2-1 CZE czech-11 – 04/19/2015 – EHT – Timrå sweden-11

czech-11 CZECHIA – 69th reign, 7 wins
1602. czech-11 CZE 4-1 SWE sweden-11 – 04/17/2015 – EHT – Umeå sweden-11
1601. czech-11 CZE 3-1 SVK slovakia-11 – 04/10/2015 – EHC – Jihlava czech-11
1600. czech-11 CZE 3-2 SVK slovakia-11 (SO) – 04/09/2015 – EHC – Jihlava czech-11
1599. czech-11 CZE 1-0 NOR norway-11 – 04/04/2015 – EHC – Lillehammer norway-11
1598. czech-11 CZE 4-0 NOR norway-11 – 04/03/2015 – EHC – Lillehammer norway-11
1597. czech-11 CZE 4-3 RUS russia-11 – 02/07/2015 – EHT – Prague czech-11
1596. czech-11 CZE 3-0 RUS russia-11 – 02/05/2015 – EHT – Karlovy Vary czech-11

russia-11 RUSSIA – 66th reign, 2 wins
1595. russia-11 RUS 3-2 CZE czech-11 – 12/21/2014 – COC – Sochi russia-11
1594. russia-11 RUS 3-2 SWE sweden-11 – 12/20/2014 – COC – Sochi russia-11

sweden-11 SWEDEN – 73rd reign, 4 wins
1593. sweden-11 SWE 6-4 CZE czech-11 – 12/18/2014 – COC – Prague czech-11
1592. sweden-11 SWE 3-0 FIN finland-11 – 11/09/2014 – KT – Helsinki finland-11
1591. sweden-11 SWE 4-3 CZE czech-11 (SO) – 11/08/2014 – KT – Helsinki finland-11
1590. sweden-11 SWE 5-4 RUS russia-11 (SO) – 11/06/2014 – KT – Leksand sweden-11

russia-11 RUSSIA – 65th reign, 1 win
1589. russia-11 RUS 5-2 FIN finland-11 – 05/25/2014 – WC – Minsk belarus-11 goldmedal

finland-11 FINLAND – 48th reign, 2 wins
1588. finland-11 FIN 3-0 CZE czech-11 – 05/24/2014 – WC – Minsk belarus-11
1587. finland-11 FIN 3-2 CAN canada1965-11 – 05/22/2014 – WC – Minsk belarus-11

canada1965-11 CANADA 59th reign, 4 wins
1586. canada1965-11 CAN 3-2 NOR norway-11 – 05/20/2014 – WC – Minsk belarus-11
1585. canada1965-11 CAN 3-2 SWE sweden-11 (OT) – 05/18/2014 – WC – Minsk belarus-11
1584. canada1965-11 CAN 6-1 ITA italy-11 – 05/16/2014 – WC – Minsk belarus-11
1583. canada1965-11 CAN 6-1 DEN denmark-11 – 05/15/2014 – WC – Minsk belarus-11

denmark-11 DENMARK – 2nd reign, 1 win
1582. denmark-11 DEN 4-1 ITA italy-11 – 05/13/2014 – WC – Minsk belarus-11

italy-11 ITALY – 1st reign, 1 win
1581. italy-11 ITA 2-1 FRA france-11 – 05/11/2014 – WC – Minsk belarus-11

france-11 FRANCE – 8th reign, 1 win
1580. france-11 FRA 3-2 CAN canada1965-11 (SO) – 05/09/2014 – WC – Minsk belarus-11

canada1965-11 CANADA – 58th reign, 5 wins
1579. canada1965-11 CAN 4-0 SUI switzerland-11 – 05/06/2014 – EX – Zürich switzerland-11
1578. canada1965-11 CAN 3-0 SWE sweden-11 – 02/23/2014 – OG – Sochi russia-11 goldmedal
1577. canada1965-11 CAN 1-0 USA usa-11 – 02/21/2014 – OG – Sochi russia-11
1576. canada1965-11 CAN 2-1 LAT latvia-11 – 02/19/2014 – OG – Sochi russia-11
1575. canada1965-11 CAN 2-1 FIN finland-11 (OT) – 02/16/2014 – OG – Sochi russia-11

finland-11 FINLAND – 47th reign, 4 wins
1574. finland-11 FIN 6-1 NOR norway-11 – 02/14/2014 – OG – Sochi russia-11
1573. finland-11 FIN 8-4 AUT austria-11 – 02/13/2014 – OG – Sochi russia-11
1572. finland-11 FIN 4-2 SWE sweden-11 – 12/22/2013 – COC – Sochi russia-11
1571. finland-11 FIN 3-2 RUS russia-11 – 12/21/2013 – COC – Sochi russia-11

russia-11 RUSSIA – 64th reign, 1 win
1570. russia-11 RUS 3-2 SWE sweden-11 – 12/19/2013 – COC – Sochi russia-11

sweden-11 SWEDEN – 72nd reign, 1 win
1569. sweden-11 SWE 3-2 FIN finland-11 (OT) – 11/10/2013 – KT – Helsinki finland-11

finland-11 FINLAND – 46th reign, 4 wins
1568. finland-11 FIN 3-2 CZE czech-11 – 11/09/2013 – KT – Helsinki finland-11
1567. finland-11 FIN 4-3 RUS russia-11 – 11/07/2013 – KT – Helsinki finland-11
1566. finland-11 FIN 5-0 SWE sweden-11 – 09/01/2013 – CHG – Pardubice czech-11
1565. finland-11 FIN 2-0 RUS russia-11 – 08/31/2013 – CHG – Pardubice czech-11

russia-11 RUSSIA – 63rd reign, 1 win
1564. russia-11 RUS 2-0 SWE sweden-11 – 08/29/2013 – CHG – Saint Petersburg russia-11

sweden-11 SWEDEN – 71st reign, 1 win
1563. sweden-11 SWE 5-1 SUI switzerland-11 – 05/19/2013 – WC – Stockholm sweden-11 goldmedal

switzerland-11 SWITZERLAND – 15th reign, 12 wins
1562. switzerland-11 SUI 3-0 USA usa-11 – 05/18/2013 – WC – Stockholm sweden-11
1561. switzerland-11 SUI 2-1 CZE czech-11 – 05/16/2013 – WC – Stockholm sweden-11
1560. switzerland-11 SUI 4-1 BLR belarus-11 – 05/14/2013 – WC – Stockholm sweden-11
1559. switzerland-11 SUI 3-1 NOR norway-11 – 05/12/2013 – WC – Stockholm sweden-11
1558. switzerland-11 SUI 4-1 DEN denmark-11 – 05/11/2013 – WC – Stockholm sweden-11
1557. switzerland-11 SUI 7-1 SLO slovenia-11 – 05/08/2013 – WC – Stockholm sweden-11
1556. switzerland-11 SUI 5-2 CZE czech-11 – 05/06/2013 – WC – Stockholm sweden-11
1555. switzerland-11 SUI 3-2 CAN canada1965-11 (SO) – 05/05/2013 – WC – Stockholm sweden-11
1554. switzerland-11 SUI 3-2 SWE sweden-11 – 05/03/2013 – WC – Stockholm sweden-11
1553. switzerland-11 SUI 3-2 GER germany1920to33and49-11 (SO) – 04/27/2013 – EX – Rapperswil-Jona switzerland-11
1552. switzerland-11 SUI 2-1 GER germany1920to33and49-11 (OT) – 04/26/2013 – EX – Langenthal switzerland-11
1551. switzerland-11 SUI 5-4 FIN finland-11 (SO) – 04/19/2013 – EHC – Hämeenlinna finland-11

finland-11 FINLAND – 45th reign, 2 wins
1550. finland-11 FIN 2-1 SUI switzerland-11 – 04/18/2013 – EHC – Pori finland-11
1549. finland-11 FIN 5-1 NOR norway-11 – 04/13/2013 – EHC – Lillehammer norway-11

norway-11 NORWAY4th reign, 1 win
1548. norway-11 NOR 3-1 FIN finland-11 – 04/12/2013 – EHC – Lillehammer norway-11

finland-11 FINLAND – 44th reign, 4 wins
1547. finland-11 FIN 7-0 DEN denmark-11 – 04/04/2013 – EHC – Odense denmark-11
1546. finland-11 FIN 3-1 DEN denmark-11 – 04/03/2013 – EHC – Gentofte denmark-11
1545. finland-11 FIN 5-2 SWE sweden-11 – 02/10/2013 – OHG – Malmö sweden-11
1544. finland-11 FIN 3-0 CZE czech-11 – 02/09/2013 – OHG – Malmö sweden-11

czech-11 CZECHIA – 68th reign, 1 win
1543. czech-11 CZE 2-0 SWE sweden-11 – 02/07/2013 – OHG – Malmö sweden-11

sweden-11 SWEDEN – 70th reign, 2 wins
1542. sweden-11 SWE 4-0 CZE czech-11 – 12/16/2012 – COC – Mytischi russia-11
1541. sweden-11 SWE 4-1 FIN finland-11 – 12/15/2012 – COC – Mytischi russia-11

finland-11 FINLAND – 43rd reign, 1 win
1540. finland-11 FIN 3-2 CZE czech-11 – 12/13/2012 – COC – Helsinki finland-11

czech-11 CZECHIA – 67th reign, 2 wins
1539. czech-11 CZE 2-1 RUS russia-11 – 11/10/2012 – KT – Turku finland-11
1538. czech-11 CZE 1-0 FIN finland-11 – 11/09/2012 – KT – Turku finland-11

finland-11 FINLAND 42nd reign, 1 win
1537. finland-11 FIN 2-1 RUS russia-11 (SO) – 11/07/2012 – KT – Turku finland-11

russia-11 RUSSIA – 62nd reign, 1 win
1536. russia-11 RUS 6-2 SVK slovakia-11 – 05/20/2012 – WC – Helsinki finland-11 goldmedal

slovakia-11 SLOVAKIA – 10th reign, 7 wins
1535. slovakia-11 SVK 3-1 CZE czech-11 – 05/19/2012 – WC – Helsinki finland-11
1534. slovakia-11 SVK 4-3 CAN canada1965-11 – 05/17/2012 – WC – Helsinki finland-11
1533. slovakia-11 SVK 5-4 FRA france-11 – 05/15/2012 – WC – Helsinki finland-11
1532. slovakia-11 SVK 1-0 SUI switzerland-11 – 05/13/2012 – WC – Helsinki finland-11
1531. slovakia-11 SVK 5-1 BLR belarus-11 – 05/12/2012 – WC – Helsinki finland-11
1530. slovakia-11 SVK 4-2 KAZ kazakhstan-11 – 05/09/2012 – WC – Helsinki finland-11
1529. slovakia-11 SVK 4-2 USA usa-11 – 05/07/2012 – WC – Helsinki finland-11

usa-11 UNITED STATES – 28th reign, 1 win
1528. usa-11 USA 5-4 CAN canada1965-11 (OT) – 05/05/2012 – WC – Helsinki finland-11

canada1965-11 CANADA – 57th reign, 3 wins
1527. canada1965-11 CAN 3-2 SVK slovakia-11 – 05/04/2012 – WC – Helsinki finland-11
1526. canada1965-11 CAN 2-1 SUI switzerland-11 (SO) – 04/29/2012 – EX – Fribourg switzerland-11
1525. canada1965-11 CAN 4-2 SUI switzerland-11 – 05/01/2012 – EX – Kloten switzerland-11

switzerland-11 SWITZERLAND – 14th reign, 2 wins
1524. switzerland-11 SUI 5-2 SWE sweden-11 – 04/20/2012 – EHC – Nyköping sweden-11
1523. switzerland-11 SUI 4-2 SWE sweden-11 – 04/18/2012 – EHC – Örebro sweden-11

sweden-11 SWEDEN – 69th reign, 6 wins
1522. sweden-11 SWE 2-1 BLR belarus-11 (SO) – 04/11/2012 – EHC – Minsk belarus-11
1521. sweden-11 SWE 4-3 BLR belarus-11 (SO) – 04/10/2012 – EHC – Minsk belarus-11
1520. sweden-11 SWE 7-1 NOR norway-11 – 04/06/2012 – EHC – Oslo norway-11
1519. sweden-11 SWE 5-0 NOR norway-11 – 04/05/2012 – EHC – Oslo norway-11
1518. sweden-11 SWE 3-1 FIN finland-11 – 02/12/2012 – OHG – Stockholm sweden-11
1517. sweden-11 SWE 4-1 RUS russia-11 – 02/11/2012 – OHG – Stockholm sweden-11

russia-11 RUSSIA – 61st reign, 1 win
1516. russia-11 RUS 2-0 FIN finland-11 – 02/09/2012 – OHG – Helsinki finland-11

finland-11 FINLAND – 41st reign, 1 win
1515. finland-11 FIN 4-3 SWE sweden-11 – 12/18/2011 – COC – Moscow russia-11

sweden-11 SWEDEN – 68th reign, 1 win
1514. sweden-11 SWE 4-2 RUS russia-11 – 12/17/2011 – COC – Moscow russia-11

russia-11 RUSSIA – 60th reign, 4 wins
1513. russia-11 RUS 3-0 FIN finland-11 – 12/15/2011 – COC – Moscow russia-11
1512. russia-11 RUS 2-1 CZE czech-11 – 11/13/2011 – KT – Helsinki finland-11
1511. russia-11 RUS 4-1 SWE sweden-11 – 11/12/2011 – KT – Helsinki finland-11
1510. russia-11 RUS 2-1 FIN finland-11 (SO) – 11/10/2011 – KT – Helsinki finland-11

finland-11 FINLAND – 40th reign, 2 wins
1509. finland-11 FIN 6-1 SWE sweden-11 – 05/15/2011 – WC – Bratislava slovakia-11 goldmedal
1508. finland-11 FIN 3-0 RUS russia-11 – 05/13/2011 – WC – Bratislava slovakia-11

russia-11 RUSSIA – 59th reign, 1 win
1507. russia-11 RUS 2-1 CAN canada1965-11 – 05/12/2011 – WC – Bratislava slovakia-11

canada1965-11 CANADA – 56th reign, 4 wins
1506. canada1965-11 CAN 3-2 SWE sweden-11 – 05/09/2011 – WC – Košice slovakia-11
1505. canada1965-11 CAN 3-2 NOR norway-11 – 05/07/2011 – WC – Košice slovakia-11
1504. canada1965-11 CAN 4-3 USA usa-11 (SO) – 05/06/2011 – WC – Košice slovakia-11
1503. canada1965-11 CAN 4-3 SUI switzerland-11 (OT) – 05/03/2011 – WC – Košice slovakia-11

switzerland-11 SWITZERLAND – 13th reign, 3 wins
1502. switzerland-11 SUI 4-1 BLR belarus-11 – 05/01/2011 – WC – Košice slovakia-11
1501. switzerland-11 SUI 1-0 FRA france-11 (OT) – 04/29/2011 – WC – Košice slovakia-11
1500. switzerland-11 SUI 3-2 CZE czech-11 – 04/16/2011 – EHC – Litvínov czech-11

czech-11 CZECHIA – 66th reign, 2 wins
1499. czech-11 CZE 1-0 SUI switzerland-11 – 04/15/2011 – EHC – Litvínov czech-11
1498. czech-11 CZE 3-2 BLR belarus-11 – 04/09/2011 – EHC – Babruysk belarus-11

belarus-11 BELARUS – 4th reign, 2 wins
1497. belarus-11 BLR 3-2 CZE czech-11 (SO) – 04/08/2011 – EHC – Minsk belarus-11
1496. belarus-11 BLR 6-4 RUS russia-11 – 04/02/2011 – EHC – Smolensk russia-11

russia-11 RUSSIA – 58th reign, 1 win
1495. russia-11 RUS 3-2 BLR belarus-11 (SO) – 04/01/2011 – EHC – Smolensk russia-11

COUNTRIES LEGEND: austria-11 AUT = Austria. belarus-11 BLR = Belaruscanada1965-11 CAN = Canadaczech-11 CZE = Czechia. denmark-11 DEN = Denmarkfinland-11 FIN = Finlandfrance-11 FRA = Francegermany1920to33and49-11 GER = Germany. hungary-11 HUN = Hungaryitaly-11 ITA = Italy. kazakhstan-11 KAZ = Kazakhstan. latvia-11 LAT = Latvianorway-11 NOR = Norway. russia-11 RUS = Russiaslovenia-11 SLO = Sloveniaswitzerland-11 SUI = Switzerlandslovakia-11 SVK = Slovakiasweden-11 SWE = Swedenusa-11 USA = United States.

EVENTS LEGEND: goldmedal = Gold Medal / Championship game. CHG = Czech/Carlson Hockey Games. COC = Channel One Cup. EHC = Euro Hockey Challenge. EHT = Euro Hockey Tour. EX = Exhibition game. KT = Karjala Tournament. OG = Olympic Games. OHG = Oddset Hockey Games. (OT) = Overtime victory. (SO) = Shootout victory. SC = Slovakia Cup. SWC = Swiss Challenge. WC = World Championship.